Time;durP1;ratioP1;P1;durP2;ratioP2;P2;SDS_P1;SDS_P2;PMS_P1;PMS_P2;Temp;Humidity;BMP_temperature;BMP_pressure;BME280_temperature;BME280_humidity;BME280_pressure;Samples;Min_cycle;Max_cycle;Signal;HPM_P1;HPM_P2
2023/11/10 00:02:20;;;;;;;2.55;2.35;;;21.30;66.30;;;;;;5093236;28;20522;-35
2023/11/10 00:04:49;;;;;;;2.30;2.10;;;21.30;66.40;;;;;;5101211;28;20066;-35
2023/11/10 00:07:17;;;;;;;2.30;2.10;;;21.30;66.30;;;;;;5098196;28;20051;-35
2023/11/10 00:09:45;;;;;;;2.60;2.40;;;21.30;66.00;;;;;;5093581;28;20039;-35
2023/11/10 00:12:12;;;;;;;2.17;2.08;;;21.30;66.00;;;;;;5088298;28;20088;-35
2023/11/10 00:14:42;;;;;;;2.17;2.03;;;21.20;66.60;;;;;;5084095;28;20049;-35
2023/11/10 00:17:11;;;;;;;2.60;2.40;;;21.30;65.90;;;;;;5095549;28;20043;-35
2023/11/10 00:19:38;;;;;;;2.60;2.40;;;21.30;66.00;;;;;;5090331;28;20543;-35
2023/11/10 00:22:04;;;;;;;2.20;2.00;;;21.30;66.00;;;;;;5092058;28;20029;-35
2023/11/10 00:24:36;;;;;;;2.50;2.30;;;21.30;66.10;;;;;;5093931;28;20044;-35
2023/11/10 00:27:02;;;;;;;2.35;2.17;;;21.30;66.10;;;;;;5092522;28;20024;-35
2023/11/10 00:29:29;;;;;;;2.60;2.40;;;21.30;66.20;;;;;;5101479;28;20032;-35
2023/11/10 00:31:55;;;;;;;2.20;2.00;;;21.30;66.10;;;;;;5101038;28;20028;-35
2023/11/10 00:34:21;;;;;;;2.45;2.25;;;21.30;66.00;;;;;;5094954;28;20397;-35
2023/11/10 00:36:48;;;;;;;2.40;2.20;;;21.30;65.90;;;;;;5098448;28;20051;-35
2023/11/10 00:39:17;;;;;;;2.50;2.30;;;21.20;65.80;;;;;;5086397;28;20096;-35
2023/11/10 00:41:44;;;;;;;2.40;2.20;;;21.20;65.80;;;;;;5090116;28;20033;-35
2023/11/10 00:44:11;;;;;;;2.50;2.30;;;21.20;65.80;;;;;;5093049;28;20122;-35
2023/11/10 00:46:38;;;;;;;2.70;2.50;;;21.20;65.90;;;;;;5105880;28;20032;-35
2023/11/10 00:49:05;;;;;;;2.45;2.25;;;21.20;65.90;;;;;;5084567;28;20111;-33
2023/11/10 00:51:34;;;;;;;2.40;2.20;;;21.20;65.90;;;;;;5095389;28;20468;-34
2023/11/10 00:54:01;;;;;;;2.72;2.50;;;21.20;65.90;;;;;;5101629;28;20040;-34
2023/11/10 00:56:27;;;;;;;2.27;2.07;;;21.20;65.90;;;;;;5106124;28;20020;-34
2023/11/10 00:58:54;;;;;;;2.53;2.33;;;21.20;66.00;;;;;;5099354;28;20344;-34
2023/11/10 01:01:22;;;;;;;2.60;2.40;;;21.20;65.90;;;;;;5087575;28;20036;-34
2023/11/10 01:03:48;;;;;;;2.60;2.40;;;21.20;65.80;;;;;;5093970;28;20090;-33
2023/11/10 01:06:18;;;;;;;2.70;2.50;;;21.20;65.90;;;;;;5093255;28;20032;-34
2023/11/10 01:08:46;;;;;;;2.45;2.28;;;21.20;65.80;;;;;;5090293;28;20043;-34
2023/11/10 01:11:13;;;;;;;2.72;2.53;;;21.10;65.70;;;;;;5099859;28;20071;-34
2023/11/10 01:13:39;;;;;;;2.42;2.22;;;21.10;65.70;;;;;;5094672;28;20124;-34
2023/11/10 01:16:07;;;;;;;2.95;2.75;;;21.10;65.70;;;;;;5101812;28;20059;-34
2023/11/10 01:18:34;;;;;;;2.45;2.25;;;21.10;65.60;;;;;;5100173;28;20032;-34
2023/11/10 01:21:01;;;;;;;2.72;2.53;;;21.10;65.60;;;;;;5087462;28;20020;-34
2023/11/10 01:23:29;;;;;;;;;;;21.10;65.60;;;;;;5096467;28;20044;-34
2023/11/10 01:25:56;;;;;;;2.80;2.60;;;21.10;65.50;;;;;;5096177;28;19912;-34
2023/11/10 01:28:23;;;;;;;2.45;2.25;;;21.10;65.40;;;;;;5090061;28;20028;-34
2023/11/10 01:30:52;;;;;;;2.65;2.40;;;21.10;65.40;;;;;;5096260;28;20048;-34
2023/11/10 01:33:20;;;;;;;2.80;2.60;;;21.10;65.40;;;;;;5094367;28;20048;-34
2023/11/10 01:35:46;;;;;;;2.92;2.72;;;21.10;65.40;;;;;;5087946;28;20111;-34
2023/11/10 01:38:15;;;;;;;2.95;2.63;;;21.00;65.40;;;;;;5087620;28;20054;-34
2023/11/10 01:40:42;;;;;;;2.70;2.50;;;21.00;65.30;;;;;;5091085;28;20079;-34
2023/11/10 01:43:12;;;;;;;2.38;2.17;;;21.00;65.30;;;;;;5087415;28;20028;-34
2023/11/10 01:45:39;;;;;;;2.60;2.40;;;21.00;65.20;;;;;;5094432;28;20040;-34
2023/11/10 01:48:08;;;;;;;3.03;2.73;;;21.00;65.20;;;;;;5091269;28;20382;-34
2023/11/10 01:50:35;;;;;;;3.03;2.80;;;21.00;65.00;;;;;;5097458;28;20280;-34
2023/11/10 01:53:03;;;;;;;2.58;2.38;;;21.00;65.00;;;;;;5089402;28;20041;-34
2023/11/10 01:55:30;;;;;;;2.90;2.70;;;21.00;65.00;;;;;;5087589;28;20100;-34
2023/11/10 01:57:57;;;;;;;3.05;2.67;;;21.00;65.00;;;;;;5100184;28;20090;-34
2023/11/10 02:00:26;;;;;;;3.03;2.83;;;21.00;65.00;;;;;;5097469;28;20100;-34
2023/11/10 02:02:53;;;;;;;3.03;2.72;;;20.90;64.90;;;;;;5097092;28;20095;-34
2023/11/10 02:05:20;;;;;;;2.42;2.22;;;20.90;65.00;;;;;;5097556;28;20040;-35
2023/11/10 02:07:46;;;;;;;;;;;20.90;65.00;;;;;;5095938;28;20447;-34
2023/11/10 02:10:12;;;;;;;2.88;2.67;;;20.90;65.00;;;;;;5088616;28;19908;-34
2023/11/10 02:12:48;;;;;;;2.85;2.65;;;20.90;65.00;;;;;;5096834;28;20040;-34
2023/11/10 02:15:14;;;;;;;2.80;2.60;;;20.90;65.00;;;;;;5089712;28;20114;-34
2023/11/10 02:17:40;;;;;;;3.28;3.00;;;20.90;64.90;;;;;;5096015;28;20025;-34
2023/11/10 02:20:07;;;;;;;3.15;2.88;;;20.90;64.90;;;;;;5093277;28;20063;-34
2023/11/10 02:22:33;;;;;;;3.00;2.80;;;20.90;64.90;;;;;;5094141;28;20032;-34
2023/11/10 02:25:02;;;;;;;3.17;2.88;;;20.80;64.90;;;;;;5094064;28;20044;-34
2023/11/10 02:27:28;;;;;;;2.95;2.75;;;20.80;64.90;;;;;;5084267;28;20028;-34
2023/11/10 02:29:54;;;;;;;3.35;3.05;;;20.80;64.90;;;;;;5094518;28;20024;-34
2023/11/10 02:32:20;;;;;;;3.05;2.78;;;20.80;64.90;;;;;;5085269;28;20040;-34
2023/11/10 02:34:46;;;;;;;3.15;2.95;;;20.80;64.90;;;;;;5092119;28;20036;-34
2023/11/10 02:37:13;;;;;;;3.55;3.17;;;20.80;64.90;;;;;;5089569;28;20112;-34
2023/11/10 02:39:39;;;;;;;3.25;2.95;;;20.80;64.90;;;;;;5098445;28;20050;-34
2023/11/10 02:42:06;;;;;;;3.40;3.10;;;20.80;64.90;;;;;;5096466;28;20032;-34
2023/11/10 02:44:32;;;;;;;2.90;2.70;;;20.80;64.90;;;;;;5098450;28;20293;-34
2023/11/10 02:46:59;;;;;;;3.40;3.20;;;20.80;64.90;;;;;;5099934;28;20118;-34
2023/11/10 02:49:25;;;;;;;3.30;3.00;;;20.80;65.00;;;;;;5089844;28;20053;-34
2023/11/10 02:51:51;;;;;;;3.33;3.13;;;20.70;64.90;;;;;;5094541;28;20043;-34
2023/11/10 02:54:17;;;;;;;3.53;3.22;;;20.70;64.90;;;;;;5095213;28;20040;-34
2023/11/10 02:56:43;;;;;;;3.35;3.05;;;20.70;64.90;;;;;;5096338;28;20028;-34
2023/11/10 02:59:10;;;;;;;3.28;2.97;;;20.70;64.90;;;;;;5101160;28;20522;-34
2023/11/10 03:01:37;;;;;;;3.40;3.10;;;20.70;64.90;;;;;;5096135;28;20060;-34
2023/11/10 03:04:04;;;;;;;3.50;3.20;;;20.70;65.00;;;;;;5100842;28;20047;-34
2023/11/10 03:06:30;;;;;;;3.67;3.10;;;20.70;65.00;;;;;;5093106;28;20100;-34
2023/11/10 03:08:58;;;;;;;3.28;3.05;;;20.70;65.00;;;;;;5094406;28;20093;-34
2023/11/10 03:11:24;;;;;;;3.40;3.10;;;20.70;65.00;;;;;;5086817;28;20436;-34
2023/11/10 03:13:54;;;;;;;3.90;3.13;;;20.60;64.90;;;;;;5093698;28;20068;-33
2023/11/10 03:16:24;;;;;;;3.20;3.00;;;20.60;64.90;;;;;;5101053;28;20048;-34
2023/11/10 03:18:52;;;;;;;3.63;3.33;;;20.60;64.90;;;;;;5087414;28;20036;-34
2023/11/10 03:21:19;;;;;;;3.80;3.50;;;20.60;64.90;;;;;;5084313;28;20119;-33
2023/11/10 03:23:48;;;;;;;4.03;3.63;;;20.60;64.90;;;;;;5083804;28;20024;-33
2023/11/10 03:26:15;;;;;;;3.63;3.33;;;20.60;65.00;;;;;;5093011;28;20051;-33
2023/11/10 03:28:43;;;;;;;3.50;3.20;;;20.60;65.00;;;;;;5083843;28;20035;-34
2023/11/10 03:31:09;;;;;;;3.80;3.50;;;20.60;65.00;;;;;;5084214;28;20193;-34
2023/11/10 03:33:36;;;;;;;3.70;3.40;;;20.50;64.90;;;;;;5085519;28;20048;-34
2023/11/10 03:36:08;;;;;;;4.13;3.50;;;20.50;64.90;;;;;;5093455;28;20036;-35
2023/11/10 03:38:35;;;;;;;3.70;3.40;;;20.50;64.90;;;;;;5096601;28;20032;-36
2023/11/10 03:41:02;;;;;;;3.72;3.42;;;20.50;65.00;;;;;;5086858;28;20028;-35
2023/11/10 03:43:29;;;;;;;3.80;3.50;;;20.50;65.00;;;;;;5083710;28;20044;-35
2023/11/10 03:45:56;;;;;;;3.58;3.28;;;20.50;65.00;;;;;;5090042;28;20040;-34
2023/11/10 03:48:24;;;;;;;4.00;3.60;;;20.50;65.00;;;;;;5102447;28;20032;-34
2023/11/10 03:50:53;;;;;;;3.50;3.20;;;20.50;65.00;;;;;;5100310;28;20050;-34
2023/11/10 03:53:20;;;;;;;4.25;3.33;;;20.50;65.00;;;;;;5091532;28;20087;-34
2023/11/10 03:55:46;;;;;;;3.97;3.67;;;20.40;65.00;;;;;;5091576;28;20028;-34
2023/11/10 03:58:13;;;;;;;3.97;3.58;;;20.40;64.90;;;;;;5091466;28;20062;-34
2023/11/10 04:00:40;;;;;;;4.32;3.92;;;20.40;65.00;;;;;;5090557;28;20024;-34
2023/11/10 04:03:07;;;;;;;4.10;3.80;;;20.40;65.00;;;;;;5084791;28;20095;-34
2023/11/10 04:05:34;;;;;;;3.63;3.33;;;20.40;65.00;;;;;;5092616;28;20032;-34
2023/11/10 04:08:00;;;;;;;5.07;3.65;;;20.40;65.00;;;;;;5097820;28;20437;-34
2023/11/10 04:10:27;;;;;;;4.00;3.70;;;20.40;65.00;;;;;;5094818;28;20637;-34
2023/11/10 04:12:53;;;;;;;3.97;3.67;;;20.40;65.00;;;;;;5090286;28;20040;-34
2023/11/10 04:15:20;;;;;;;4.20;3.80;;;20.40;65.10;;;;;;5087022;28;20040;-34
2023/11/10 04:17:46;;;;;;;3.90;3.60;;;20.30;65.00;;;;;;5098382;28;20317;-34
2023/11/10 04:20:12;;;;;;;4.23;3.87;;;20.30;65.00;;;;;;5088784;28;20086;-34
2023/11/10 04:22:41;;;;;;;4.15;3.75;;;20.30;65.00;;;;;;5091220;28;20285;-34
2023/11/10 04:25:09;;;;;;;4.07;3.50;;;20.30;65.10;;;;;;5090626;28;20032;-34
2023/11/10 04:27:36;;;;;;;4.22;3.78;;;20.30;65.80;;;;;;5090653;28;20052;-34
2023/11/10 04:30:03;;;;;;;4.72;3.80;;;20.30;65.20;;;;;;5084269;28;20044;-34
2023/11/10 04:32:29;;;;;;;4.68;4.13;;;20.30;65.10;;;;;;5097171;28;20032;-34
2023/11/10 04:34:55;;;;;;;4.90;4.05;;;20.30;65.10;;;;;;5098340;28;20044;-34
2023/11/10 04:37:23;;;;;;;4.65;4.32;;;20.20;65.10;;;;;;5093583;28;20033;-34
2023/11/10 04:39:52;;;;;;;;;;;20.20;65.10;;;;;;5097882;28;20038;-34
2023/11/10 04:42:19;;;;;;;5.88;4.03;;;20.20;65.10;;;;;;5098107;28;19908;-34
2023/11/10 04:44:46;;;;;;;4.30;3.90;;;20.20;65.20;;;;;;5092476;28;20040;-34
2023/11/10 04:47:13;;;;;;;4.33;3.93;;;20.20;65.20;;;;;;5105538;28;20051;-34
2023/11/10 04:49:39;;;;;;;6.28;3.85;;;20.20;65.20;;;;;;5101179;28;20493;-34
2023/11/10 04:52:06;;;;;;;4.60;4.20;;;20.20;65.20;;;;;;5091761;28;20051;-34
2023/11/10 04:54:33;;;;;;;4.30;3.90;;;20.20;65.20;;;;;;5086264;28;20036;-34
2023/11/10 04:57:00;;;;;;;4.80;3.88;;;20.20;65.20;;;;;;5093338;28;20281;-34
2023/11/10 04:59:26;;;;;;;4.55;4.13;;;20.10;65.30;;;;;;5100909;28;20560;-34
2023/11/10 05:01:52;;;;;;;4.68;4.28;;;20.10;65.20;;;;;;5103030;28;20092;-34
2023/11/10 05:04:18;;;;;;;4.88;4.22;;;20.10;65.20;;;;;;5094247;28;20047;-34
2023/11/10 05:06:44;;;;;;;5.32;4.38;;;20.10;65.30;;;;;;5098125;28;20032;-34
2023/11/10 05:09:11;;;;;;;4.57;3.97;;;20.10;65.30;;;;;;5102449;28;20059;-34
2023/11/10 05:11:37;;;;;;;4.70;4.30;;;20.10;65.30;;;;;;5097042;28;20091;-34
2023/11/10 05:14:03;;;;;;;4.43;4.03;;;20.10;65.30;;;;;;5096810;28;20092;-34
2023/11/10 05:16:29;;;;;;;5.33;4.50;;;20.10;66.10;;;;;;5110478;28;20028;-34
2023/11/10 05:18:58;;;;;;;4.68;4.20;;;20.10;65.30;;;;;;5104749;28;20061;-34
2023/11/10 05:21:26;;;;;;;4.45;4.05;;;20.00;65.30;;;;;;5094148;28;20035;-34
2023/11/10 05:23:52;;;;;;;4.97;4.47;;;20.00;65.30;;;;;;5100804;28;20384;-33
2023/11/10 05:26:18;;;;;;;4.68;4.28;;;20.00;65.40;;;;;;5098127;28;20028;-33
2023/11/10 05:28:45;;;;;;;4.55;4.15;;;20.00;65.40;;;;;;5097456;28;20028;-33
2023/11/10 05:31:14;;;;;;;5.10;4.60;;;20.00;65.40;;;;;;5098579;28;20028;-33
2023/11/10 05:33:40;;;;;;;4.75;4.32;;;20.00;65.40;;;;;;5093617;28;20037;-34
2023/11/10 05:36:07;;;;;;;4.80;4.40;;;19.90;65.40;;;;;;5095286;28;20032;-34
2023/11/10 05:38:33;;;;;;;5.20;4.68;;;19.90;65.40;;;;;;5096317;28;20032;-33
2023/11/10 05:40:59;;;;;;;5.10;4.60;;;19.90;65.40;;;;;;5100486;28;20033;-33
2023/11/10 05:43:25;;;;;;;5.05;4.55;;;19.90;65.40;;;;;;5100787;28;20033;-34
2023/11/10 05:45:51;;;;;;;4.93;4.53;;;19.90;65.40;;;;;;5093760;28;20028;-33
2023/11/10 05:48:17;;;;;;;4.88;4.38;;;19.90;65.50;;;;;;5100634;28;20028;-33
2023/11/10 05:50:47;;;;;;;4.95;4.45;;;19.90;65.50;;;;;;5099939;28;20028;-33
2023/11/10 05:53:14;;;;;;;5.30;4.80;;;19.90;65.60;;;;;;5100955;28;20075;-34
2023/11/10 05:55:40;;;;;;;6.20;4.50;;;19.90;65.50;;;;;;5092399;28;20096;-34
2023/11/10 05:58:06;;;;;;;4.60;4.20;;;19.80;65.50;;;;;;5093115;28;20039;-34
2023/11/10 06:00:34;;;;;;;4.60;4.20;;;19.90;65.60;;;;;;5098275;28;20040;-34
2023/11/10 06:03:00;;;;;;;4.93;4.53;;;19.80;65.60;;;;;;5102517;28;20028;-34
2023/11/10 06:05:28;;;;;;;5.30;4.80;;;19.80;65.60;;;;;;5093571;28;20633;-34
2023/11/10 06:07:54;;;;;;;5.10;4.20;;;19.80;65.60;;;;;;5100838;28;20038;-34
2023/11/10 06:10:21;;;;;;;4.93;4.43;;;19.80;65.60;;;;;;5096671;28;20036;-33
2023/11/10 06:12:50;;;;;;;4.80;4.40;;;19.80;65.60;;;;;;5103487;28;20093;-33
2023/11/10 06:15:17;;;;;;;4.65;4.15;;;19.80;65.60;;;;;;5089584;28;20044;-34
2023/11/10 06:17:46;;;;;;;5.00;4.60;;;19.80;65.60;;;;;;5107815;27;20040;-33
2023/11/10 06:20:12;;;;;;;4.72;4.28;;;19.80;65.70;;;;;;5102437;28;20060;-34
2023/11/10 06:22:39;;;;;;;5.05;4.55;;;19.80;65.70;;;;;;5103868;28;20059;-33
2023/11/10 06:25:05;;;;;;;5.07;4.65;;;19.70;65.70;;;;;;5094993;28;20110;-33
2023/11/10 06:27:31;;;;;;;5.27;4.67;;;19.70;65.70;;;;;;5098042;28;20035;-33
2023/11/10 06:29:57;;;;;;;5.50;5.00;;;19.70;65.70;;;;;;5101031;28;20311;-33
2023/11/10 06:32:23;;;;;;;4.50;4.10;;;19.70;65.70;;;;;;5096349;28;20095;-33
2023/11/10 06:34:50;;;;;;;5.10;4.60;;;19.70;65.70;;;;;;5099430;28;20087;-33
2023/11/10 06:37:16;;;;;;;5.10;4.60;;;19.70;65.70;;;;;;5091686;28;20088;-34
2023/11/10 06:39:42;;;;;;;5.53;5.03;;;19.70;65.70;;;;;;5089891;28;20036;-33
2023/11/10 06:42:08;;;;;;;5.25;4.75;;;19.70;65.70;;;;;;5100294;28;20039;-33
2023/11/10 06:44:34;;;;;;;5.25;4.75;;;19.60;65.80;;;;;;5095881;28;20058;-35
2023/11/10 06:47:00;;;;;;;5.10;4.60;;;19.60;65.80;;;;;;5100119;28;20024;-34
2023/11/10 06:49:26;;;;;;;4.95;4.55;;;19.60;65.70;;;;;;5099089;28;20100;-34
2023/11/10 06:51:53;;;;;;;4.53;4.10;;;19.60;65.80;;;;;;5092783;28;20057;-34
2023/11/10 06:54:20;;;;;;;4.95;4.55;;;19.60;65.80;;;;;;5093428;28;20054;-34
2023/11/10 06:56:46;;;;;;;5.32;4.82;;;19.60;65.80;;;;;;5103056;28;20082;-34
2023/11/10 06:59:12;;;;;;;6.97;5.20;;;19.60;65.80;;;;;;5092361;28;20040;-34
2023/11/10 07:01:39;;;;;;;5.38;4.90;;;19.60;65.80;;;;;;5092576;28;20039;-35
2023/11/10 07:04:06;;;;;;;5.30;4.65;;;19.50;65.80;;;;;;5096834;28;20055;-34
2023/11/10 07:06:33;;;;;;;6.00;5.50;;;19.50;65.80;;;;;;5095163;28;20024;-34
2023/11/10 07:08:59;;;;;;;4.93;4.50;;;19.60;65.90;;;;;;5099440;28;20032;-34
2023/11/10 07:11:26;;;;;;;5.10;4.60;;;19.50;65.80;;;;;;5098633;28;20052;-35
2023/11/10 07:13:52;;;;;;;5.15;4.65;;;19.50;65.90;;;;;;5094442;28;20032;-34
2023/11/10 07:16:20;;;;;;;4.93;4.53;;;19.50;65.90;;;;;;5100388;28;20035;-34
2023/11/10 07:18:51;;;;;;;5.30;4.55;;;19.50;65.80;;;;;;5088468;28;20096;-34
2023/11/10 07:21:17;;;;;;;5.50;5.00;;;19.50;65.90;;;;;;5092711;28;20063;-34
2023/11/10 07:23:44;;;;;;;5.00;4.55;;;19.50;65.90;;;;;;5096650;28;20035;-34
2023/11/10 07:26:10;;;;;;;5.10;4.60;;;19.50;66.00;;;;;;5087658;28;20032;-34
2023/11/10 07:28:36;;;;;;;5.25;4.78;;;19.50;65.90;;;;;;5089557;28;20123;-34
2023/11/10 07:31:02;;;;;;;4.07;3.72;;;19.50;65.90;;;;;;5085192;28;20028;-34
2023/11/10 07:33:28;;;;;;;4.90;4.50;;;19.50;65.90;;;;;;5095888;28;20043;-34
2023/11/10 07:35:54;;;;;;;5.25;4.75;;;19.40;65.90;;;;;;5094347;28;20440;-35
2023/11/10 07:38:21;;;;;;;5.35;4.85;;;19.50;66.00;;;;;;5086941;28;20032;-34
2023/11/10 07:40:47;;;;;;;5.28;4.78;;;19.40;66.50;;;;;;5095684;28;20046;-34
2023/11/10 07:43:13;;;;;;;5.28;4.78;;;19.40;65.90;;;;;;5100831;28;20032;-36
2023/11/10 07:45:39;;;;;;;5.30;4.80;;;19.40;65.90;;;;;;5106120;28;20092;-34
2023/11/10 07:48:05;;;;;;;5.00;4.60;;;19.40;65.90;;;;;;5100452;28;20028;-34
2023/11/10 07:50:31;;;;;;;5.65;4.85;;;19.40;66.00;;;;;;5096126;28;20024;-34
2023/11/10 07:52:58;;;;;;;4.97;4.57;;;19.40;66.00;;;;;;5100751;28;20040;-34
2023/11/10 07:55:24;;;;;;;6.15;4.95;;;19.40;66.00;;;;;;5094153;28;20039;-36
2023/11/10 07:57:50;;;;;;;5.60;5.07;;;19.40;66.00;;;;;;5095053;28;20369;-34
2023/11/10 08:00:18;;;;;;;6.03;5.10;;;19.40;66.00;;;;;;5092031;28;20032;-34
2023/11/10 08:02:45;;;;;;;6.20;5.15;;;19.40;66.00;;;;;;5097852;28;20308;-34
2023/11/10 08:05:12;;;;;;;5.50;5.00;;;19.40;66.60;;;;;;5088736;28;20047;-34
2023/11/10 08:07:39;;;;;;;4.95;4.45;;;19.40;66.10;;;;;;5088924;28;20032;-34
2023/11/10 08:10:06;;;;;;;5.57;5.07;;;19.30;66.00;;;;;;5091958;28;20057;-34
2023/11/10 08:12:32;;;;;;;5.47;4.80;;;19.30;66.00;;;;;;5091647;28;20028;-34
2023/11/10 08:14:58;;;;;;;5.40;4.90;;;19.30;66.10;;;;;;5093518;28;20136;-34
2023/11/10 08:17:25;;;;;;;6.55;5.10;;;19.30;66.10;;;;;;5099916;28;20020;-34
2023/11/10 08:19:51;;;;;;;5.60;5.10;;;19.30;66.10;;;;;;5101899;28;20036;-34
2023/11/10 08:22:17;;;;;;;5.35;4.85;;;19.30;66.10;;;;;;5094252;28;20043;-34
2023/11/10 08:24:43;;;;;;;5.68;5.13;;;19.30;66.10;;;;;;5094551;28;20032;-34
2023/11/10 08:27:10;;;;;;;5.50;5.00;;;19.20;66.10;;;;;;5084179;28;20024;-34
2023/11/10 08:29:36;;;;;;;7.63;5.30;;;19.30;66.10;;;;;;5092674;28;20529;-34
2023/11/10 08:32:03;;;;;;;5.38;4.88;;;19.20;66.10;;;;;;5085776;28;20036;-34
2023/11/10 08:34:29;;;;;;;5.65;5.15;;;19.20;66.10;;;;;;5094293;28;20614;-34
2023/11/10 08:36:57;;;;;;;5.30;4.78;;;19.20;66.10;;;;;;5090438;28;20054;-35
2023/11/10 08:39:23;;;;;;;5.35;4.85;;;19.20;66.10;;;;;;5087398;28;20058;-34
2023/11/10 08:41:49;;;;;;;5.75;5.15;;;19.20;66.10;;;;;;5091990;28;20025;-35
2023/11/10 08:44:16;;;;;;;5.60;5.10;;;19.20;66.10;;;;;;5097360;28;20059;-34
2023/11/10 08:46:45;;;;;;;4.67;4.27;;;19.20;66.10;;;;;;5102659;28;20028;-35
2023/11/10 08:49:14;;;;;;;5.38;4.78;;;19.20;66.10;;;;;;5088225;28;20333;-34
2023/11/10 08:51:40;;;;;;;5.60;5.10;;;19.20;66.10;;;;;;5099275;28;20024;-34
2023/11/10 08:54:08;;;;;;;5.47;4.97;;;19.20;66.10;;;;;;5091173;28;21359;-35
2023/11/10 08:56:35;;;;;;;6.00;5.40;;;19.20;66.10;;;;;;5093212;28;20032;-34
2023/11/10 08:59:01;;;;;;;5.35;4.85;;;19.20;66.10;;;;;;5094592;28;20440;-35
2023/11/10 09:01:27;;;;;;;5.50;4.82;;;19.10;66.10;;;;;;5096798;28;20043;-34
2023/11/10 09:03:53;;;;;;;5.82;5.28;;;19.20;66.20;;;;;;5104432;28;20051;-34
2023/11/10 09:06:20;;;;;;;5.68;5.07;;;19.10;66.20;;;;;;5097271;28;20098;-34
2023/11/10 09:08:46;;;;;;;5.65;5.10;;;19.10;66.20;;;;;;5100364;28;20034;-34
2023/11/10 09:11:12;;;;;;;6.00;5.50;;;19.10;66.20;;;;;;5105147;28;20090;-34
2023/11/10 09:13:41;;;;;;;5.43;4.93;;;19.10;66.30;;;;;;5097357;28;20040;-34
2023/11/10 09:16:08;;;;;;;5.35;4.85;;;19.10;66.20;;;;;;5100960;28;20118;-34
2023/11/10 09:18:34;;;;;;;5.88;5.28;;;19.10;66.30;;;;;;5092336;28;20029;-34
2023/11/10 09:21:00;;;;;;;6.65;5.40;;;19.10;66.30;;;;;;5096439;28;20091;-34
2023/11/10 09:23:28;;;;;;;5.88;5.32;;;19.10;66.30;;;;;;5098315;28;20036;-35
2023/11/10 09:25:56;;;;;;;5.40;4.90;;;19.10;66.30;;;;;;5098403;28;20032;-34
2023/11/10 09:28:24;;;;;;;5.90;5.40;;;19.10;66.30;;;;;;5092781;28;20029;-35
2023/11/10 09:30:53;;;;;;;5.30;4.80;;;19.10;66.30;;;;;;5094409;28;20028;-34
2023/11/10 09:33:21;;;;;;;5.70;5.20;;;19.00;66.20;;;;;;5097391;28;20074;-34
2023/11/10 09:35:50;;;;;;;6.13;5.53;;;19.00;66.20;;;;;;5100884;28;20054;-34
2023/11/10 09:38:18;;;;;;;5.93;5.32;;;19.00;66.30;;;;;;5096511;28;20029;-34
2023/11/10 09:40:46;;;;;;;5.60;5.10;;;19.00;66.30;;;;;;5094598;28;20035;-34
2023/11/10 09:43:13;;;;;;;5.03;4.63;;;19.00;66.30;;;;;;5093817;28;20038;-35
2023/11/10 09:45:40;;;;;;;5.45;4.95;;;19.00;66.30;;;;;;5103167;28;20098;-34
2023/11/10 09:48:08;;;;;;;5.60;5.10;;;19.00;66.30;;;;;;5086370;28;20773;-34
2023/11/10 09:50:37;;;;;;;5.60;5.10;;;19.00;66.30;;;;;;5104032;28;20036;-34
2023/11/10 09:53:04;;;;;;;5.22;4.70;;;19.00;66.40;;;;;;5089616;28;20032;-34
2023/11/10 09:55:30;;;;;;;5.57;5.07;;;19.00;66.30;;;;;;5092559;28;20155;-34
2023/11/10 09:57:56;;;;;;;5.32;4.82;;;19.00;66.30;;;;;;5091553;28;20522;-34
2023/11/10 10:00:22;;;;;;;5.60;5.10;;;19.00;66.40;;;;;;5093582;28;20028;-34
2023/11/10 10:02:51;;;;;;;5.63;5.05;;;19.00;66.40;;;;;;5093634;28;20039;-34
2023/11/10 10:05:18;;;;;;;5.70;5.10;;;18.90;66.30;;;;;;5103127;28;20057;-35
2023/11/10 10:07:46;;;;;;;5.57;5.07;;;18.90;66.40;;;;;;5095010;28;20050;-34
2023/11/10 10:10:13;;;;;;;5.70;5.18;;;18.90;66.40;;;;;;5088099;28;20029;-34
2023/11/10 10:12:39;;;;;;;5.88;5.28;;;18.90;66.40;;;;;;5103611;28;20032;-34
2023/11/10 10:15:06;;;;;;;5.55;5.05;;;18.90;66.40;;;;;;5093826;28;20043;-34
2023/11/10 10:17:38;;;;;;;5.35;4.95;;;18.90;66.40;;;;;;5108810;28;20024;-35
2023/11/10 10:20:18;;;;;;;6.13;5.53;;;18.90;66.50;;;;;;5102031;28;20024;-35
2023/11/10 10:22:48;;;;;;;5.78;5.18;;;18.90;66.50;;;;;;5103395;28;20047;-34
2023/11/10 10:25:15;;;;;;;5.90;5.40;;;18.90;66.50;;;;;;5095424;28;20632;-34
2023/11/10 10:27:44;;;;;;;5.88;5.38;;;18.90;66.50;;;;;;5095248;28;20119;-34
2023/11/10 10:30:10;;;;;;;5.38;4.88;;;18.80;66.50;;;;;;5095846;28;20750;-34
2023/11/10 10:32:38;;;;;;;6.20;5.50;;;18.90;66.40;;;;;;5103686;28;20043;-34
2023/11/10 10:35:04;;;;;;;6.00;5.47;;;18.80;66.50;;;;;;5094745;28;20103;-34
2023/11/10 10:37:32;;;;;;;5.82;5.15;;;18.80;66.50;;;;;;5094452;28;20107;-34
2023/11/10 10:40:01;;;;;;;5.13;4.63;;;18.80;66.50;;;;;;5091892;28;20402;-34
2023/11/10 10:42:34;;;;;;;5.75;5.22;;;18.80;66.50;;;;;;5102250;28;20028;-35
2023/11/10 10:45:05;;;;;;;5.40;4.90;;;18.80;66.50;;;;;;5101737;28;20052;-34
2023/11/10 10:47:38;;;;;;;6.38;5.25;;;18.80;66.50;;;;;;5092800;28;20070;-34
2023/11/10 10:50:08;;;;;;;5.57;5.00;;;18.80;66.60;;;;;;5090352;28;20027;-35
2023/11/10 10:52:34;;;;;;;5.60;5.10;;;18.80;66.50;;;;;;5095333;28;20028;-34
2023/11/10 10:55:05;;;;;;;5.75;5.18;;;18.80;66.60;;;;;;5103431;28;20032;-34
2023/11/10 10:57:33;;;;;;;5.82;5.30;;;18.80;66.60;;;;;;5102336;28;20544;-34
2023/11/10 11:00:01;;;;;;;5.70;5.20;;;18.80;66.60;;;;;;5096891;28;20118;-35
2023/11/10 11:02:27;;;;;;;5.90;5.30;;;18.70;66.60;;;;;;5102518;28;20032;-34
2023/11/10 11:05:25;;;;;;;5.45;4.95;;;18.70;66.50;;;;;;5075388;28;20055;-34
2023/11/10 11:08:11;;;;;;;5.43;4.93;;;18.70;66.60;;;;;;5100724;28;20099;-34
2023/11/10 11:10:57;;;;;;;5.95;5.18;;;18.70;66.60;;;;;;5094839;28;20036;-34
2023/11/10 11:14:05;;;;;;;6.00;5.45;;;18.70;66.70;;;;;;5084218;28;20051;-34
2023/11/10 11:17:03;;;;;;;5.35;4.95;;;18.70;66.60;;;;;;5090474;28;20036;-35
2023/11/10 11:19:33;;;;;;;6.03;5.43;;;18.70;66.70;;;;;;5093630;28;20589;-35
2023/11/10 11:21:59;;;;;;;5.60;5.10;;;18.70;66.70;;;;;;5081952;28;20028;-34
2023/11/10 11:24:26;;;;;;;5.78;5.28;;;18.70;66.70;;;;;;5088349;28;20038;-34
2023/11/10 11:27:00;;;;;;;;;;;18.70;66.70;;;;;;5092637;28;20035;-34
2023/11/10 11:29:34;;;;;;;5.47;4.97;;;18.70;66.70;;;;;;5100153;28;19911;-34
2023/11/10 11:32:11;;;;;;;6.03;5.50;;;18.70;66.70;;;;;;5097062;28;20032;-34
2023/11/10 11:34:38;;;;;;;5.70;5.20;;;18.60;66.70;;;;;;5100547;28;20095;-34
2023/11/10 11:37:06;;;;;;;5.40;4.80;;;18.60;66.70;;;;;;5105604;28;20038;-34
2023/11/10 11:39:33;;;;;;;6.22;5.70;;;18.60;66.70;;;;;;5099698;28;20055;-35
2023/11/10 11:42:04;;;;;;;6.30;5.70;;;18.60;66.80;;;;;;5098563;28;20083;-37
2023/11/10 11:44:32;;;;;;;8.35;5.50;;;18.60;66.80;;;;;;5098382;28;20386;-35
2023/11/10 11:47:09;;;;;;;5.75;5.25;;;18.60;66.80;;;;;;5089447;28;20045;-35
2023/11/10 11:49:39;;;;;;;5.97;5.47;;;18.60;66.80;;;;;;5103635;28;20094;-35
2023/11/10 11:52:09;;;;;;;6.03;5.53;;;18.60;66.80;;;;;;5100265;28;20035;-35
2023/11/10 11:54:35;;;;;;;6.10;5.50;;;18.60;66.80;;;;;;5104271;28;20081;-35
2023/11/10 11:57:02;;;;;;;6.85;5.10;;;18.60;66.80;;;;;;5105378;28;20061;-35
2023/11/10 11:59:28;;;;;;;6.20;5.60;;;18.60;66.80;;;;;;5092005;28;20028;-34
2023/11/10 12:01:55;;;;;;;5.60;5.10;;;18.60;66.80;;;;;;5100200;28;20028;-34
2023/11/10 12:04:22;;;;;;;5.85;5.28;;;18.60;66.80;;;;;;5097942;28;20036;-34
2023/11/10 12:06:48;;;;;;;6.30;5.70;;;18.50;66.80;;;;;;5104921;28;20036;-34
2023/11/10 12:09:15;;;;;;;6.53;5.47;;;18.50;66.80;;;;;;5099538;28;20032;-35
2023/11/10 12:11:41;;;;;;;5.70;5.15;;;18.50;66.80;;;;;;5097643;28;20032;-34
2023/11/10 12:14:11;;;;;;;5.72;5.20;;;18.50;66.90;;;;;;5092341;28;20044;-35
2023/11/10 12:16:38;;;;;;;5.60;5.05;;;18.50;66.90;;;;;;5107216;28;20016;-34
2023/11/10 12:19:05;;;;;;;5.82;5.32;;;18.50;66.90;;;;;;5086417;28;20028;-34
2023/11/10 12:21:34;;;;;;;6.68;5.70;;;18.50;66.90;;;;;;5094320;28;20029;-34
2023/11/10 12:24:03;;;;;;;5.50;5.00;;;18.50;66.90;;;;;;5086554;28;20033;-34
2023/11/10 12:26:39;;;;;;;6.07;5.47;;;18.50;66.90;;;;;;5093256;28;20453;-39
2023/11/10 12:29:10;;;;;;;5.97;5.47;;;18.50;66.90;;;;;;5089182;28;20118;-34
2023/11/10 12:31:37;;;;;;;5.30;4.80;;;18.50;66.90;;;;;;5082723;28;20485;-34
2023/11/10 12:34:06;;;;;;;5.85;5.35;;;18.40;66.90;;;;;;5096931;28;20075;-34
2023/11/10 12:36:35;;;;;;;5.93;5.43;;;18.40;66.90;;;;;;5089843;28;20052;-35
2023/11/10 12:39:06;;;;;;;5.68;5.18;;;18.40;66.90;;;;;;5090806;28;20043;-34
2023/11/10 12:41:32;;;;;;;5.30;4.80;;;18.40;66.90;;;;;;5092725;28;20055;-35
2023/11/10 12:43:58;;;;;;;6.05;5.45;;;18.40;67.00;;;;;;5091398;28;20529;-35
2023/11/10 12:46:25;;;;;;;5.55;5.05;;;18.40;67.00;;;;;;5104440;28;20054;-35
2023/11/10 12:48:52;;;;;;;5.60;5.10;;;18.40;67.00;;;;;;5094335;28;20074;-34
2023/11/10 12:51:23;;;;;;;6.00;5.40;;;18.40;67.00;;;;;;5098829;28;20028;-34